Station info - map view · info · telemetry · weather · raw · status · beacons · messages · bulletins · browse · moving · my account
Callsign, ship name or locator: Clear       
It is possible to search using wildcards (*?) after a prefix. Example: OH*
APRS station KG6YOA - show graphs
Map loading...
Mic-E message: In service
Location: 45°30.03' N 122°46.08' W - locator CN85OM70UC - show map - static map
4.7 miles West bearing 250° from Portland, Multnomah County, Oregon, United States [?]
6.2 miles Southeast bearing 129° from Bethany, Washington County, Oregon, United States
6.3 miles Southeast bearing 123° from Rockcreek, Washington County, Oregon, United States
10.8 miles Southwest bearing 208° from Vancouver, Clark County, Washington, United States
Last position: 2019-03-10 14:02:01 EDT (11d 18h43m ago)
2019-03-10 11:02:01 PDT local time at Portland, United States [?]
Altitude: 0 ft
Course:
Device: Kenwood: TM-D710 (rig)
Last path: KG6YOA>T5SPPS via WIDE1-1,WIDE2-1,qAR,BALDPK (good)
Positions stored: 3084
Stations near current position of KG6YOA - show more
callsign distance last heard - EDT      callsign distance last heard - EDT
KC7ZBI-ios1.0 miles 247°2019-03-02 20:36:36 WA7UQE-121.1 miles 237°2019-03-15 18:08:19
K7ESB-71.3 miles 322°2019-03-14 20:28:42 N6ZKL-71.3 miles 137°2019-03-21 13:18:21
N6ZKL-91.3 miles 137°2019-03-21 13:18:21 KD7MRX-91.4 miles 267°2019-03-22 00:11:05
DW61231.5 miles 299°2019-03-22 08:31:37 KB7PSD-71.7 miles 66°2019-02-23 00:48:48
KI7BR1.8 miles 271°2019-03-16 12:27:43 EW91842.1 miles 324°2019-03-21 13:03:30
EW48312.2 miles 103°2019-03-22 08:31:46 N7RGX-52.4 miles 79°2019-03-06 10:57:48
FW21892.7 miles 317°2019-03-22 08:44:01 KI7MBL-72.7 miles 69°2019-03-11 18:34:30
IRLP-77912.8 miles 159°2019-03-10 23:51:43 CW69302.9 miles 169°2019-03-22 08:44:41
KI7RQE3.1 miles 100°2019-03-10 13:13:11 IRLP-72223.1 miles 269°2019-03-22 07:59:38
KJ6EBJ-103.1 miles 198°2019-03-17 18:33:26 k7gds-103.3 miles 149°2019-03-21 12:46:40
Stations which heard KG6YOA directly on radio –
callsign pkts first heard - EDT last heard longest (tx => rx) longest at - EDT
LARCH 1 2019-03-08 23:10:26 2019-03-08 23:10:26 CN85PJ > CN85UR 31.0 miles 44° 2019-03-08 23:10:26
AC7TK 6 2019-03-08 20:02:49 2019-03-08 20:26:28 CN84LH > CN84LB 16.9 miles 181° 2019-03-08 20:26:28
WOLF 1 2019-03-08 20:02:50 2019-03-08 20:02:50 CN83LX > CN83VO 46.7 miles 124° 2019-03-08 20:02:50
W7GC-4 3 2019-03-08 22:15:12 2019-03-08 22:47:17 CN84LQ > CN85CF 49.7 miles 317° 2019-03-08 22:15:12
EUGENE 7 2019-03-08 19:51:27 2019-03-08 20:24:17 CN83LU > CN84KC 19.6 miles 342° 2019-03-08 19:51:27
W7IG 2 2019-03-08 22:49:39 2019-03-08 22:54:55 CN85OE > CN85HC 28.2 miles 257° 2019-03-08 22:54:55
KD1IT-10 1 2019-03-08 23:19:53 2019-03-08 23:19:53 CN85OL > CN85NK 4.9 miles 239° 2019-03-08 23:19:53
BALDPK 4 2019-03-08 23:05:05 2019-03-08 23:25:05 CN85OL > CN85LJ 14.9 miles 244° 2019-03-08 23:25:05
NA7Q-9 1 2019-03-08 23:09:31 2019-03-08 23:09:31 CN85PJ > CN85QL 8.6 miles 39° 2019-03-08 23:09:31
BEAVRT 1 2019-03-08 23:25:37 2019-03-08 23:25:37 CN85OM > CN85OK 5.2 miles 218° 2019-03-08 23:25:37
SADDLE 1 2019-03-08 22:09:17 2019-03-08 22:09:17 CN84LP > CN85HN 66.1 miles 346° 2019-03-08 22:09:17
K7RMO-1 9 2019-03-08 22:22:29 2019-03-08 23:25:58 CN84LT > CN85MI 38.0 miles 9° 2019-03-08 22:22:29
MSCOTT 1 2019-03-08 23:13:45 2019-03-08 23:13:45 CN85OK > CN85RK 11.1 miles 86° 2019-03-08 23:13:45
MKSRDG 13 2019-03-08 20:15:08 2019-03-08 22:37:57 CN84MX > CN84PK 41.5 miles 159° 2019-03-08 22:37:57
NPLNS 4 2019-03-08 22:57:27 2019-03-08 23:19:15 CN85OF > CN85MP 29.0 miles 341° 2019-03-08 22:57:27
AA1AO-1 1 2019-03-08 22:42:37 2019-03-08 22:42:37 CN85MB > CN85KF 12.2 miles 331° 2019-03-08 22:42:37

Only position packets which were originated by the station are shown here. The range statistics show some extra long hops, because some digipeaters do not correctly add themselves to the digipeater path. Please check the raw packets.
About this site
This page shows real-time information collected from the Automatic Position Reporting System Internet network (APRS-IS). APRS is used by amateur (ham) radio operators to transmit real-time position information, weather data, telemetry and messages over the radio. A vehicle equipped with a GPS receiver, a VHF transmitter or HF transceiver and a small computer device called a tracker transmits it's location, speed and course in a small data packet, which is then received by a nearby iGate receiving site which forwards the packet on the Internet. Systems connected to the Internet can send information on the APRS-IS without a radio transmitter, or collect and display information transmitted anywhere in the world.
FAQ · Blog · Discussion group · Linking to aprs.fi · AIS sites · Service status · Database statistics · Advertising on aprs.fi · Technical details · API · Change log · Planned changes · Credits and thanks · Terms Of Service · iPhone/iPad APRS